sensor_id;sensor_type;location;lat;lon;timestamp;temperature;humidity
31991;DHT22;18508;49.386;8.370;2024-01-25T00:00:33;10.60;99.90
31991;DHT22;18508;49.386;8.370;2024-01-25T00:05:29;10.10;99.90
31991;DHT22;18508;49.386;8.370;2024-01-25T00:07:57;10.50;99.90
31991;DHT22;18508;49.386;8.370;2024-01-25T00:10:25;10.20;99.90
31991;DHT22;18508;49.386;8.370;2024-01-25T00:12:55;10.50;99.90
31991;DHT22;18508;49.386;8.370;2024-01-25T00:15:23;10.40;99.90
31991;DHT22;18508;49.386;8.370;2024-01-25T00:20:20;10.10;99.90
31991;DHT22;18508;49.386;8.370;2024-01-25T00:22:49;10.50;99.90
31991;DHT22;18508;49.386;8.370;2024-01-25T00:25:17;10.40;99.90
31991;DHT22;18508;49.386;8.370;2024-01-25T00:30:15;10.20;99.90
31991;DHT22;18508;49.386;8.370;2024-01-25T00:35:14;10.50;99.90
31991;DHT22;18508;49.386;8.370;2024-01-25T00:37:42;10.30;99.90
31991;DHT22;18508;49.386;8.370;2024-01-25T00:40:11;10.40;99.90
31991;DHT22;18508;49.386;8.370;2024-01-25T00:42:42;10.90;99.90
31991;DHT22;18508;49.386;8.370;2024-01-25T00:45:11;10.00;99.90
31991;DHT22;18508;49.386;8.370;2024-01-25T00:47:41;10.20;99.90
31991;DHT22;18508;49.386;8.370;2024-01-25T00:50:11;10.50;99.90
31991;DHT22;18508;49.386;8.370;2024-01-25T00:52:40;9.70;99.90
31991;DHT22;18508;49.386;8.370;2024-01-25T00:55:09;10.10;99.90
31991;DHT22;18508;49.386;8.370;2024-01-25T00:57:38;10.60;99.90
31991;DHT22;18508;49.386;8.370;2024-01-25T01:00:07;10.80;99.90
31991;DHT22;18508;49.386;8.370;2024-01-25T01:02:42;10.40;99.90
31991;DHT22;18508;49.386;8.370;2024-01-25T01:05:11;10.50;99.90
31991;DHT22;18508;49.386;8.370;2024-01-25T01:07:40;10.20;99.90
31991;DHT22;18508;49.386;8.370;2024-01-25T01:10:09;10.30;99.90
31991;DHT22;18508;49.386;8.370;2024-01-25T01:12:37;10.80;99.90
31991;DHT22;18508;49.386;8.370;2024-01-25T01:15:06;11.00;99.90
31991;DHT22;18508;49.386;8.370;2024-01-25T01:17:35;9.90;99.90
31991;DHT22;18508;49.386;8.370;2024-01-25T01:20:06;10.30;99.90
31991;DHT22;18508;49.386;8.370;2024-01-25T01:27:37;10.40;99.90
31991;DHT22;18508;49.386;8.370;2024-01-25T01:30:09;10.40;99.90
31991;DHT22;18508;49.386;8.370;2024-01-25T01:32:39;10.90;99.90
31991;DHT22;18508;49.386;8.370;2024-01-25T01:35:08;9.90;99.90
31991;DHT22;18508;49.386;8.370;2024-01-25T01:37:37;10.10;99.90
31991;DHT22;18508;49.386;8.370;2024-01-25T01:40:07;10.40;99.90
31991;DHT22;18508;49.386;8.370;2024-01-25T01:42:38;9.70;99.90
31991;DHT22;18508;49.386;8.370;2024-01-25T01:45:07;10.60;99.90
31991;DHT22;18508;49.386;8.370;2024-01-25T01:47:39;10.40;99.90
31991;DHT22;18508;49.386;8.370;2024-01-25T01:50:10;10.50;99.90
31991;DHT22;18508;49.386;8.370;2024-01-25T01:52:39;10.10;99.90
31991;DHT22;18508;49.386;8.370;2024-01-25T01:55:08;10.60;99.90
31991;DHT22;18508;49.386;8.370;2024-01-25T01:57:36;10.10;99.90
31991;DHT22;18508;49.386;8.370;2024-01-25T02:00:08;10.10;99.90
31991;DHT22;18508;49.386;8.370;2024-01-25T02:02:36;10.10;99.90
31991;DHT22;18508;49.386;8.370;2024-01-25T02:05:05;10.10;99.90
31991;DHT22;18508;49.386;8.370;2024-01-25T02:07:40;10.10;99.90
31991;DHT22;18508;49.386;8.370;2024-01-25T02:10:08;9.60;99.90
31991;DHT22;18508;49.386;8.370;2024-01-25T02:12:38;10.70;99.90
31991;DHT22;18508;49.386;8.370;2024-01-25T02:15:07;10.40;99.90
31991;DHT22;18508;49.386;8.370;2024-01-25T02:17:35;12.20;99.90
31991;DHT22;18508;49.386;8.370;2024-01-25T02:20:05;10.10;99.90
31991;DHT22;18508;49.386;8.370;2024-01-25T02:22:36;9.80;99.90
31991;DHT22;18508;49.386;8.370;2024-01-25T02:25:07;10.10;99.90
31991;DHT22;18508;49.386;8.370;2024-01-25T02:27:35;10.30;99.90
31991;DHT22;18508;49.386;8.370;2024-01-25T02:30:07;10.70;99.90
31991;DHT22;18508;49.386;8.370;2024-01-25T02:32:38;9.80;99.90
31991;DHT22;18508;49.386;8.370;2024-01-25T02:35:09;10.10;99.90
31991;DHT22;18508;49.386;8.370;2024-01-25T02:37:39;10.10;99.90
31991;DHT22;18508;49.386;8.370;2024-01-25T02:40:08;9.80;99.90
31991;DHT22;18508;49.386;8.370;2024-01-25T02:42:37;9.80;99.90
31991;DHT22;18508;49.386;8.370;2024-01-25T02:45:06;10.10;99.90
31991;DHT22;18508;49.386;8.370;2024-01-25T02:47:36;9.70;99.90
31991;DHT22;18508;49.386;8.370;2024-01-25T02:50:05;10.30;99.90
31991;DHT22;18508;49.386;8.370;2024-01-25T02:52:34;9.80;99.90
31991;DHT22;18508;49.386;8.370;2024-01-25T02:55:05;10.00;99.90
31991;DHT22;18508;49.386;8.370;2024-01-25T02:57:33;9.80;99.90
31991;DHT22;18508;49.386;8.370;2024-01-25T03:00:06;9.50;99.90
31991;DHT22;18508;49.386;8.370;2024-01-25T03:02:35;10.20;99.90
31991;DHT22;18508;49.386;8.370;2024-01-25T03:05:07;9.60;99.90
31991;DHT22;18508;49.386;8.370;2024-01-25T03:10:07;9.40;99.90
31991;DHT22;18508;49.386;8.370;2024-01-25T03:12:36;9.70;99.90
31991;DHT22;18508;49.386;8.370;2024-01-25T03:15:04;9.60;99.90
31991;DHT22;18508;49.386;8.370;2024-01-25T03:17:33;9.50;99.90
31991;DHT22;18508;49.386;8.370;2024-01-25T03:20:01;9.40;99.90
31991;DHT22;18508;49.386;8.370;2024-01-25T03:22:30;9.50;99.90
31991;DHT22;18508;49.386;8.370;2024-01-25T03:24:59;9.40;99.90
31991;DHT22;18508;49.386;8.370;2024-01-25T03:27:30;9.40;99.90
31991;DHT22;18508;49.386;8.370;2024-01-25T03:29:58;9.10;99.90
31991;DHT22;18508;49.386;8.370;2024-01-25T03:32:26;9.70;99.90
31991;DHT22;18508;49.386;8.370;2024-01-25T03:34:58;9.70;99.90
31991;DHT22;18508;49.386;8.370;2024-01-25T03:37:27;9.80;99.90
31991;DHT22;18508;49.386;8.370;2024-01-25T03:39:55;8.80;99.90
31991;DHT22;18508;49.386;8.370;2024-01-25T03:42:23;9.40;99.90
31991;DHT22;18508;49.386;8.370;2024-01-25T03:44:53;8.90;99.90
31991;DHT22;18508;49.386;8.370;2024-01-25T03:47:21;9.50;99.90
31991;DHT22;18508;49.386;8.370;2024-01-25T03:49:51;9.00;99.90
31991;DHT22;18508;49.386;8.370;2024-01-25T03:52:19;9.40;99.90
31991;DHT22;18508;49.386;8.370;2024-01-25T03:54:48;9.20;99.90
31991;DHT22;18508;49.386;8.370;2024-01-25T03:59:44;9.00;99.90
31991;DHT22;18508;49.386;8.370;2024-01-25T04:02:15;8.60;99.90
31991;DHT22;18508;49.386;8.370;2024-01-25T04:09:42;8.80;99.90
31991;DHT22;18508;49.386;8.370;2024-01-25T04:12:11;8.80;99.90
31991;DHT22;18508;49.386;8.370;2024-01-25T04:14:39;9.30;99.90
31991;DHT22;18508;49.386;8.370;2024-01-25T04:17:10;8.70;99.90
31991;DHT22;18508;49.386;8.370;2024-01-25T04:19:40;8.60;99.90
31991;DHT22;18508;49.386;8.370;2024-01-25T04:22:09;8.70;99.90
31991;DHT22;18508;49.386;8.370;2024-01-25T04:24:37;8.80;99.90
31991;DHT22;18508;49.386;8.370;2024-01-25T04:29:33;8.20;99.90
31991;DHT22;18508;49.386;8.370;2024-01-25T04:32:03;8.30;99.90
31991;DHT22;18508;49.386;8.370;2024-01-25T04:37:04;8.20;99.90
31991;DHT22;18508;49.386;8.370;2024-01-25T04:39:34;8.10;99.90
31991;DHT22;18508;49.386;8.370;2024-01-25T04:42:03;8.10;99.90
31991;DHT22;18508;49.386;8.370;2024-01-25T04:44:32;8.00;99.90
31991;DHT22;18508;49.386;8.370;2024-01-25T04:47:00;8.20;99.90
31991;DHT22;18508;49.386;8.370;2024-01-25T04:49:29;7.70;99.90
31991;DHT22;18508;49.386;8.370;2024-01-25T04:51:57;8.30;99.90
31991;DHT22;18508;49.386;8.370;2024-01-25T04:54:27;8.10;99.90
31991;DHT22;18508;49.386;8.370;2024-01-25T04:59:25;7.70;99.90
31991;DHT22;18508;49.386;8.370;2024-01-25T05:01:56;7.50;99.90
31991;DHT22;18508;49.386;8.370;2024-01-25T05:04:25;8.20;99.90
31991;DHT22;18508;49.386;8.370;2024-01-25T05:06:55;7.70;99.90
31991;DHT22;18508;49.386;8.370;2024-01-25T05:09:24;7.30;99.90
31991;DHT22;18508;49.386;8.370;2024-01-25T05:11:54;7.10;99.90
31991;DHT22;18508;49.386;8.370;2024-01-25T05:14:25;7.70;99.90
31991;DHT22;18508;49.386;8.370;2024-01-25T05:16:53;6.90;99.90
31991;DHT22;18508;49.386;8.370;2024-01-25T05:19:22;7.40;99.90
31991;DHT22;18508;49.386;8.370;2024-01-25T05:21:53;7.20;99.90
31991;DHT22;18508;49.386;8.370;2024-01-25T05:26:54;6.90;99.90
31991;DHT22;18508;49.386;8.370;2024-01-25T05:29:23;7.10;99.90
31991;DHT22;18508;49.386;8.370;2024-01-25T05:36:49;7.60;99.90
31991;DHT22;18508;49.386;8.370;2024-01-25T05:39:17;7.80;99.90
31991;DHT22;18508;49.386;8.370;2024-01-25T05:41:46;7.80;99.90
31991;DHT22;18508;49.386;8.370;2024-01-25T05:44:17;7.70;99.90
31991;DHT22;18508;49.386;8.370;2024-01-25T05:49:14;7.20;99.90
31991;DHT22;18508;49.386;8.370;2024-01-25T05:51:44;8.20;99.90
31991;DHT22;18508;49.386;8.370;2024-01-25T05:54:13;7.90;99.90
31991;DHT22;18508;49.386;8.370;2024-01-25T06:01:40;7.60;99.90
31991;DHT22;18508;49.386;8.370;2024-01-25T06:06:40;7.70;99.90
31991;DHT22;18508;49.386;8.370;2024-01-25T06:09:09;7.50;99.90
31991;DHT22;18508;49.386;8.370;2024-01-25T06:11:40;7.70;99.90
31991;DHT22;18508;49.386;8.370;2024-01-25T06:16:39;7.30;99.90
31991;DHT22;18508;49.386;8.370;2024-01-25T06:21:36;7.50;99.90
31991;DHT22;18508;49.386;8.370;2024-01-25T06:24:05;7.10;99.90
31991;DHT22;18508;49.386;8.370;2024-01-25T06:34:01;7.20;99.90
31991;DHT22;18508;49.386;8.370;2024-01-25T06:48:58;7.10;99.90
31991;DHT22;18508;49.386;8.370;2024-01-25T06:51:29;7.00;99.90
31991;DHT22;18508;49.386;8.370;2024-01-25T07:08:55;6.80;99.90
31991;DHT22;18508;49.386;8.370;2024-01-25T07:11:23;6.30;99.90
31991;DHT22;18508;49.386;8.370;2024-01-25T07:21:27;6.30;99.90
31991;DHT22;18508;49.386;8.370;2024-01-25T07:23:56;6.70;99.90
31991;DHT22;18508;49.386;8.370;2024-01-25T07:26:25;6.40;99.90
31991;DHT22;18508;49.386;8.370;2024-01-25T07:31:24;6.50;99.90
31991;DHT22;18508;49.386;8.370;2024-01-25T07:36:22;6.80;99.90
31991;DHT22;18508;49.386;8.370;2024-01-25T07:38:51;6.90;99.90
31991;DHT22;18508;49.386;8.370;2024-01-25T07:41:21;6.60;99.90
31991;DHT22;18508;49.386;8.370;2024-01-25T07:43:50;6.40;99.90
31991;DHT22;18508;49.386;8.370;2024-01-25T07:46:24;6.40;99.90
31991;DHT22;18508;49.386;8.370;2024-01-25T07:48:58;6.70;99.90
31991;DHT22;18508;49.386;8.370;2024-01-25T07:51:26;7.00;99.90
31991;DHT22;18508;49.386;8.370;2024-01-25T07:56:25;7.00;99.90
31991;DHT22;18508;49.386;8.370;2024-01-25T07:58:54;7.20;99.90
31991;DHT22;18508;49.386;8.370;2024-01-25T08:01:22;7.20;99.90
31991;DHT22;18508;49.386;8.370;2024-01-25T08:03:51;6.60;99.90
31991;DHT22;18508;49.386;8.370;2024-01-25T08:06:19;7.20;99.90
31991;DHT22;18508;49.386;8.370;2024-01-25T08:13:48;6.80;99.90
31991;DHT22;18508;49.386;8.370;2024-01-25T08:18:48;6.90;99.90
31991;DHT22;18508;49.386;8.370;2024-01-25T08:28:48;7.00;99.90
31991;DHT22;18508;49.386;8.370;2024-01-25T08:46:16;7.90;99.90
31991;DHT22;18508;49.386;8.370;2024-01-25T08:56:12;8.30;99.90
31991;DHT22;18508;49.386;8.370;2024-01-25T09:03:41;8.60;99.90
31991;DHT22;18508;49.386;8.370;2024-01-25T09:13:35;8.30;99.90
31991;DHT22;18508;49.386;8.370;2024-01-25T09:18:43;9.10;99.90
31991;DHT22;18508;49.386;8.370;2024-01-25T09:31:07;9.50;1.00
31991;DHT22;18508;49.386;8.370;2024-01-25T09:33:36;9.30;99.90
31991;DHT22;18508;49.386;8.370;2024-01-25T09:36:08;9.50;1.00
31991;DHT22;18508;49.386;8.370;2024-01-25T09:38:37;9.80;99.90
31991;DHT22;18508;49.386;8.370;2024-01-25T09:41:05;9.60;1.00
31991;DHT22;18508;49.386;8.370;2024-01-25T09:43:36;9.50;62.40
31991;DHT22;18508;49.386;8.370;2024-01-25T09:46:07;9.80;11.90
31991;DHT22;18508;49.386;8.370;2024-01-25T09:48:36;9.80;31.50
31991;DHT22;18508;49.386;8.370;2024-01-25T09:51:04;10.00;1.00
31991;DHT22;18508;49.386;8.370;2024-01-25T09:53:35;9.90;88.60
31991;DHT22;18508;49.386;8.370;2024-01-25T09:56:07;10.10;1.00
31991;DHT22;18508;49.386;8.370;2024-01-25T09:58:39;10.20;1.00
31991;DHT22;18508;49.386;8.370;2024-01-25T10:01:09;10.20;1.00
31991;DHT22;18508;49.386;8.370;2024-01-25T10:03:41;10.10;1.00
31991;DHT22;18508;49.386;8.370;2024-01-25T10:06:11;10.30;1.00
31991;DHT22;18508;49.386;8.370;2024-01-25T10:08:41;10.20;1.00
31991;DHT22;18508;49.386;8.370;2024-01-25T10:11:10;10.30;1.00
31991;DHT22;18508;49.386;8.370;2024-01-25T10:13:42;10.30;1.00
31991;DHT22;18508;49.386;8.370;2024-01-25T10:16:11;10.40;1.00
31991;DHT22;18508;49.386;8.370;2024-01-25T10:18:42;10.50;1.00
31991;DHT22;18508;49.386;8.370;2024-01-25T10:21:12;10.50;49.10
31991;DHT22;18508;49.386;8.370;2024-01-25T10:23:45;10.30;99.90
31991;DHT22;18508;49.386;8.370;2024-01-25T10:26:15;10.50;47.80
31991;DHT22;18508;49.386;8.370;2024-01-25T10:28:50;10.50;99.90
31991;DHT22;18508;49.386;8.370;2024-01-25T10:33:54;10.30;99.90
31991;DHT22;18508;49.386;8.370;2024-01-25T10:36:26;10.60;99.90
31991;DHT22;18508;49.386;8.370;2024-01-25T10:38:57;10.60;99.90
31991;DHT22;18508;49.386;8.370;2024-01-25T10:41:28;10.70;99.90
31991;DHT22;18508;49.386;8.370;2024-01-25T10:43:56;11.10;99.90
31991;DHT22;18508;49.386;8.370;2024-01-25T10:46:25;10.80;99.90
31991;DHT22;18508;49.386;8.370;2024-01-25T10:48:57;10.90;99.90
31991;DHT22;18508;49.386;8.370;2024-01-25T10:51:27;11.40;99.90
31991;DHT22;18508;49.386;8.370;2024-01-25T10:53:59;10.90;99.90
31991;DHT22;18508;49.386;8.370;2024-01-25T10:56:28;11.20;99.90
31991;DHT22;18508;49.386;8.370;2024-01-25T10:58:56;11.30;1.00
31991;DHT22;18508;49.386;8.370;2024-01-25T11:01:26;11.50;99.90
31991;DHT22;18508;49.386;8.370;2024-01-25T11:03:54;11.50;1.00
31991;DHT22;18508;49.386;8.370;2024-01-25T11:06:24;11.50;99.90
31991;DHT22;18508;49.386;8.370;2024-01-25T11:09:05;11.50;99.90
31991;DHT22;18508;49.386;8.370;2024-01-25T11:11:35;11.70;99.90
31991;DHT22;18508;49.386;8.370;2024-01-25T11:14:03;12.90;99.90
31991;DHT22;18508;49.386;8.370;2024-01-25T11:16:32;11.80;99.90
31991;DHT22;18508;49.386;8.370;2024-01-25T11:19:05;11.80;99.90
31991;DHT22;18508;49.386;8.370;2024-01-25T11:21:40;11.70;99.90
31991;DHT22;18508;49.386;8.370;2024-01-25T11:24:14;11.50;56.90
31991;DHT22;18508;49.386;8.370;2024-01-25T11:26:43;11.20;99.90
31991;DHT22;18508;49.386;8.370;2024-01-25T11:31:48;11.30;29.00
31991;DHT22;18508;49.386;8.370;2024-01-25T11:34:17;11.50;99.90
31991;DHT22;18508;49.386;8.370;2024-01-25T11:36:46;11.30;1.00
31991;DHT22;18508;49.386;8.370;2024-01-25T11:39:16;11.20;1.00
31991;DHT22;18508;49.386;8.370;2024-01-25T11:41:45;11.20;93.00
31991;DHT22;18508;49.386;8.370;2024-01-25T11:44:14;11.30;1.00
31991;DHT22;18508;49.386;8.370;2024-01-25T11:46:42;11.70;78.00
31991;DHT22;18508;49.386;8.370;2024-01-25T11:49:12;11.70;19.60
31991;DHT22;18508;49.386;8.370;2024-01-25T11:51:41;11.80;1.00
31991;DHT22;18508;49.386;8.370;2024-01-25T11:54:19;11.90;1.00
31991;DHT22;18508;49.386;8.370;2024-01-25T11:56:47;12.10;34.30
31991;DHT22;18508;49.386;8.370;2024-01-25T11:59:16;12.20;1.00
31991;DHT22;18508;49.386;8.370;2024-01-25T12:01:45;12.20;99.90
31991;DHT22;18508;49.386;8.370;2024-01-25T12:04:14;12.20;90.20
31991;DHT22;18508;49.386;8.370;2024-01-25T12:06:48;12.20;99.90
31991;DHT22;18508;49.386;8.370;2024-01-25T12:09:17;12.40;99.90
31991;DHT22;18508;49.386;8.370;2024-01-25T12:11:49;11.90;99.90
31991;DHT22;18508;49.386;8.370;2024-01-25T12:14:18;12.50;99.90
31991;DHT22;18508;49.386;8.370;2024-01-25T12:16:46;12.40;99.90
31991;DHT22;18508;49.386;8.370;2024-01-25T12:19:15;12.30;99.90
31991;DHT22;18508;49.386;8.370;2024-01-25T12:21:44;12.40;99.90
31991;DHT22;18508;49.386;8.370;2024-01-25T12:24:12;12.50;99.90
31991;DHT22;18508;49.386;8.370;2024-01-25T12:26:42;12.50;99.90
31991;DHT22;18508;49.386;8.370;2024-01-25T12:29:12;12.50;1.00
31991;DHT22;18508;49.386;8.370;2024-01-25T12:31:40;12.30;1.00
31991;DHT22;18508;49.386;8.370;2024-01-25T12:34:13;12.80;1.00
31991;DHT22;18508;49.386;8.370;2024-01-25T12:36:44;12.70;1.00
31991;DHT22;18508;49.386;8.370;2024-01-25T12:39:15;12.40;1.00
31991;DHT22;18508;49.386;8.370;2024-01-25T12:41:47;12.50;99.90
31991;DHT22;18508;49.386;8.370;2024-01-25T12:44:17;12.60;99.90
31991;DHT22;18508;49.386;8.370;2024-01-25T12:46:46;12.80;65.50
31991;DHT22;18508;49.386;8.370;2024-01-25T12:49:14;12.50;99.90
31991;DHT22;18508;49.386;8.370;2024-01-25T12:51:48;12.90;8.40
31991;DHT22;18508;49.386;8.370;2024-01-25T12:54:21;12.40;99.90
31991;DHT22;18508;49.386;8.370;2024-01-25T12:56:52;12.40;99.90
31991;DHT22;18508;49.386;8.370;2024-01-25T12:59:25;12.50;99.90
31991;DHT22;18508;49.386;8.370;2024-01-25T13:01:57;12.50;99.90
31991;DHT22;18508;49.386;8.370;2024-01-25T13:04:26;12.20;99.90
31991;DHT22;18508;49.386;8.370;2024-01-25T13:06:55;12.20;99.90
31991;DHT22;18508;49.386;8.370;2024-01-25T13:14:25;12.70;24.10
31991;DHT22;18508;49.386;8.370;2024-01-25T13:16:54;12.20;99.90
31991;DHT22;18508;49.386;8.370;2024-01-25T13:19:22;12.80;32.90
31991;DHT22;18508;49.386;8.370;2024-01-25T13:21:53;12.40;99.90
31991;DHT22;18508;49.386;8.370;2024-01-25T13:24:21;12.50;99.90
31991;DHT22;18508;49.386;8.370;2024-01-25T13:31:48;13.20;1.00
31991;DHT22;18508;49.386;8.370;2024-01-25T13:44:14;13.00;1.00
31991;DHT22;18508;49.386;8.370;2024-01-25T13:46:42;13.00;1.00
31991;DHT22;18508;49.386;8.370;2024-01-25T13:49:12;13.00;1.00
31991;DHT22;18508;49.386;8.370;2024-01-25T13:51:40;13.00;1.00
31991;DHT22;18508;49.386;8.370;2024-01-25T13:54:08;12.90;1.00
31991;DHT22;18508;49.386;8.370;2024-01-25T13:56:36;12.90;1.00
31991;DHT22;18508;49.386;8.370;2024-01-25T13:59:06;12.80;1.00
31991;DHT22;18508;49.386;8.370;2024-01-25T14:01:34;12.80;1.00
31991;DHT22;18508;49.386;8.370;2024-01-25T14:04:04;12.80;1.00
31991;DHT22;18508;49.386;8.370;2024-01-25T14:06:33;12.80;1.00
31991;DHT22;18508;49.386;8.370;2024-01-25T14:09:02;12.80;1.00
31991;DHT22;18508;49.386;8.370;2024-01-25T14:11:30;12.90;1.00
31991;DHT22;18508;49.386;8.370;2024-01-25T14:13:59;12.80;1.00
31991;DHT22;18508;49.386;8.370;2024-01-25T14:16:27;12.80;1.00
31991;DHT22;18508;49.386;8.370;2024-01-25T14:18:55;12.70;1.00
31991;DHT22;18508;49.386;8.370;2024-01-25T14:21:25;12.70;1.00
31991;DHT22;18508;49.386;8.370;2024-01-25T14:23:55;12.60;1.00
31991;DHT22;18508;49.386;8.370;2024-01-25T14:26:23;12.50;1.00
31991;DHT22;18508;49.386;8.370;2024-01-25T14:28:53;12.50;1.00
31991;DHT22;18508;49.386;8.370;2024-01-25T14:31:21;12.40;1.00
31991;DHT22;18508;49.386;8.370;2024-01-25T14:33:49;12.40;1.00
31991;DHT22;18508;49.386;8.370;2024-01-25T14:36:19;12.70;99.90
31991;DHT22;18508;49.386;8.370;2024-01-25T14:38:47;12.30;1.00
31991;DHT22;18508;49.386;8.370;2024-01-25T14:41:17;11.80;99.90
31991;DHT22;18508;49.386;8.370;2024-01-25T14:43:45;12.20;99.90
31991;DHT22;18508;49.386;8.370;2024-01-25T14:46:13;12.20;99.90
31991;DHT22;18508;49.386;8.370;2024-01-25T14:48:44;12.20;99.90
31991;DHT22;18508;49.386;8.370;2024-01-25T14:51:12;11.80;99.90
31991;DHT22;18508;49.386;8.370;2024-01-25T14:53:41;12.10;99.90
31991;DHT22;18508;49.386;8.370;2024-01-25T14:56:09;12.10;99.90
31991;DHT22;18508;49.386;8.370;2024-01-25T14:58:41;12.00;99.90
31991;DHT22;18508;49.386;8.370;2024-01-25T15:01:13;12.10;99.90
31991;DHT22;18508;49.386;8.370;2024-01-25T15:03:46;12.00;99.90
31991;DHT22;18508;49.386;8.370;2024-01-25T15:06:15;12.10;28.20
31991;DHT22;18508;49.386;8.370;2024-01-25T15:08:51;11.90;99.90
31991;DHT22;18508;49.386;8.370;2024-01-25T15:11:19;11.90;99.90
31991;DHT22;18508;49.386;8.370;2024-01-25T15:13:51;11.90;77.40
31991;DHT22;18508;49.386;8.370;2024-01-25T15:16:19;11.80;99.90
31991;DHT22;18508;49.386;8.370;2024-01-25T15:18:47;11.80;1.00
31991;DHT22;18508;49.386;8.370;2024-01-25T15:21:16;11.80;1.00
31991;DHT22;18508;49.386;8.370;2024-01-25T15:23:45;11.70;1.00
31991;DHT22;18508;49.386;8.370;2024-01-25T15:26:14;11.70;99.90
31991;DHT22;18508;49.386;8.370;2024-01-25T15:28:42;11.60;99.90
31991;DHT22;18508;49.386;8.370;2024-01-25T15:31:13;11.60;1.00
31991;DHT22;18508;49.386;8.370;2024-01-25T15:33:45;11.50;1.00
31991;DHT22;18508;49.386;8.370;2024-01-25T15:36:13;11.40;99.90
31991;DHT22;18508;49.386;8.370;2024-01-25T15:38:44;11.40;86.00
31991;DHT22;18508;49.386;8.370;2024-01-25T15:41:12;11.40;1.00
31991;DHT22;18508;49.386;8.370;2024-01-25T15:43:41;11.30;1.00
31991;DHT22;18508;49.386;8.370;2024-01-25T15:46:09;11.30;1.00
31991;DHT22;18508;49.386;8.370;2024-01-25T15:48:43;11.30;1.00
31991;DHT22;18508;49.386;8.370;2024-01-25T15:51:13;11.20;99.90
31991;DHT22;18508;49.386;8.370;2024-01-25T15:53:44;11.20;99.90
31991;DHT22;18508;49.386;8.370;2024-01-25T15:56:12;11.50;1.00
31991;DHT22;18508;49.386;8.370;2024-01-25T15:58:41;11.20;99.90
31991;DHT22;18508;49.386;8.370;2024-01-25T16:01:09;11.10;99.90
31991;DHT22;18508;49.386;8.370;2024-01-25T16:03:38;10.60;99.90
31991;DHT22;18508;49.386;8.370;2024-01-25T16:06:07;11.00;99.90
31991;DHT22;18508;49.386;8.370;2024-01-25T16:08:37;11.00;99.90
31991;DHT22;18508;49.386;8.370;2024-01-25T16:11:05;11.00;99.90
31991;DHT22;18508;49.386;8.370;2024-01-25T16:13:34;10.90;99.90
31991;DHT22;18508;49.386;8.370;2024-01-25T16:16:03;10.60;99.90
31991;DHT22;18508;49.386;8.370;2024-01-25T16:18:32;10.90;99.90
31991;DHT22;18508;49.386;8.370;2024-01-25T16:21:01;10.90;99.90
31991;DHT22;18508;49.386;8.370;2024-01-25T16:23:31;10.80;99.90
31991;DHT22;18508;49.386;8.370;2024-01-25T16:25:59;10.80;99.90
31991;DHT22;18508;49.386;8.370;2024-01-25T16:28:28;10.80;99.90
31991;DHT22;18508;49.386;8.370;2024-01-25T16:30:57;10.70;1.00
31991;DHT22;18508;49.386;8.370;2024-01-25T16:33:26;10.70;99.90
31991;DHT22;18508;49.386;8.370;2024-01-25T16:35:54;10.70;1.00
31991;DHT22;18508;49.386;8.370;2024-01-25T16:38:24;10.80;1.00
31991;DHT22;18508;49.386;8.370;2024-01-25T16:40:55;10.70;1.00
31991;DHT22;18508;49.386;8.370;2024-01-25T16:43:23;10.20;99.90
31991;DHT22;18508;49.386;8.370;2024-01-25T16:45:51;10.70;99.90
31991;DHT22;18508;49.386;8.370;2024-01-25T16:48:21;10.70;1.00
31991;DHT22;18508;49.386;8.370;2024-01-25T16:50:53;10.70;99.90
31991;DHT22;18508;49.386;8.370;2024-01-25T16:55:50;10.50;26.90
31991;DHT22;18508;49.386;8.370;2024-01-25T16:58:22;10.50;99.90
31991;DHT22;18508;49.386;8.370;2024-01-25T17:03:20;10.40;1.00
31991;DHT22;18508;49.386;8.370;2024-01-25T17:05:49;10.30;1.00
31991;DHT22;18508;49.386;8.370;2024-01-25T17:08:18;10.30;1.00
31991;DHT22;18508;49.386;8.370;2024-01-25T17:10:47;10.20;7.60
31991;DHT22;18508;49.386;8.370;2024-01-25T17:13:16;10.20;99.90
31991;DHT22;18508;49.386;8.370;2024-01-25T17:15:48;10.20;99.90
31991;DHT22;18508;49.386;8.370;2024-01-25T17:18:16;10.10;99.90
31991;DHT22;18508;49.386;8.370;2024-01-25T17:20:44;10.20;99.90
31991;DHT22;18508;49.386;8.370;2024-01-25T17:23:12;10.10;99.90
31991;DHT22;18508;49.386;8.370;2024-01-25T17:25:40;10.10;99.90
31991;DHT22;18508;49.386;8.370;2024-01-25T17:28:09;9.80;99.90
31991;DHT22;18508;49.386;8.370;2024-01-25T17:30:38;10.00;99.90
31991;DHT22;18508;49.386;8.370;2024-01-25T17:33:08;9.80;99.90
31991;DHT22;18508;49.386;8.370;2024-01-25T17:35:36;9.80;99.90
31991;DHT22;18508;49.386;8.370;2024-01-25T17:38:04;9.90;99.90
31991;DHT22;18508;49.386;8.370;2024-01-25T17:40:32;9.80;99.90
31991;DHT22;18508;49.386;8.370;2024-01-25T17:43:01;9.80;99.90
31991;DHT22;18508;49.386;8.370;2024-01-25T17:45:29;9.40;99.90
31991;DHT22;18508;49.386;8.370;2024-01-25T17:47:57;9.60;99.90
31991;DHT22;18508;49.386;8.370;2024-01-25T17:50:27;9.50;99.90
31991;DHT22;18508;49.386;8.370;2024-01-25T17:52:55;9.90;99.90
31991;DHT22;18508;49.386;8.370;2024-01-25T17:55:23;9.80;99.90
31991;DHT22;18508;49.386;8.370;2024-01-25T17:57:51;9.50;99.90
31991;DHT22;18508;49.386;8.370;2024-01-25T18:00:20;9.70;99.90
31991;DHT22;18508;49.386;8.370;2024-01-25T18:02:48;9.40;99.90
31991;DHT22;18508;49.386;8.370;2024-01-25T18:07:47;9.70;99.90
31991;DHT22;18508;49.386;8.370;2024-01-25T18:10:15;9.50;99.90
31991;DHT22;18508;49.386;8.370;2024-01-25T18:12:43;9.70;99.90
31991;DHT22;18508;49.386;8.370;2024-01-25T18:15:12;9.70;99.90
31991;DHT22;18508;49.386;8.370;2024-01-25T18:17:43;9.80;99.90
31991;DHT22;18508;49.386;8.370;2024-01-25T18:20:12;9.50;99.90
31991;DHT22;18508;49.386;8.370;2024-01-25T18:22:40;9.70;99.90
31991;DHT22;18508;49.386;8.370;2024-01-25T18:25:12;10.30;99.90
31991;DHT22;18508;49.386;8.370;2024-01-25T18:27:43;9.70;99.90
31991;DHT22;18508;49.386;8.370;2024-01-25T18:30:12;9.30;99.90
31991;DHT22;18508;49.386;8.370;2024-01-25T18:32:40;9.70;99.90
31991;DHT22;18508;49.386;8.370;2024-01-25T18:37:38;9.20;99.90
31991;DHT22;18508;49.386;8.370;2024-01-25T18:40:08;9.70;99.90
31991;DHT22;18508;49.386;8.370;2024-01-25T18:42:37;9.30;99.90
31991;DHT22;18508;49.386;8.370;2024-01-25T18:45:07;9.60;99.90
31991;DHT22;18508;49.386;8.370;2024-01-25T18:47:36;9.60;99.90
31991;DHT22;18508;49.386;8.370;2024-01-25T18:50:05;9.80;99.90
31991;DHT22;18508;49.386;8.370;2024-01-25T18:52:34;9.60;99.90
31991;DHT22;18508;49.386;8.370;2024-01-25T18:55:02;9.70;99.90
31991;DHT22;18508;49.386;8.370;2024-01-25T18:57:31;9.40;99.90
31991;DHT22;18508;49.386;8.370;2024-01-25T19:00:02;9.70;99.90
31991;DHT22;18508;49.386;8.370;2024-01-25T19:02:31;9.70;99.90
31991;DHT22;18508;49.386;8.370;2024-01-25T19:05:00;9.50;99.90
31991;DHT22;18508;49.386;8.370;2024-01-25T19:07:29;9.90;99.90
31991;DHT22;18508;49.386;8.370;2024-01-25T19:09:57;9.70;99.90
31991;DHT22;18508;49.386;8.370;2024-01-25T19:17:24;9.60;99.90
31991;DHT22;18508;49.386;8.370;2024-01-25T19:34:45;9.70;99.90